sensor_id;sensor_type;location;lat;lon;timestamp;pressure;altitude;pressure_sealevel;temperature;humidity
75945;BME280;64628;50.104;14.614;2023-06-22T00:00:54;98901.26;;;23.20;46.38
75945;BME280;64628;50.104;14.614;2023-06-22T00:03:20;98900.75;;;23.08;46.82
75945;BME280;64628;50.104;14.614;2023-06-22T00:05:44;98902.07;;;23.55;46.57
75945;BME280;64628;50.104;14.614;2023-06-22T00:08:09;98903.05;;;23.27;46.71
75945;BME280;64628;50.104;14.614;2023-06-22T00:10:35;98901.77;;;23.46;46.76
75945;BME280;64628;50.104;14.614;2023-06-22T00:13:01;98908.93;;;23.22;46.54
75945;BME280;64628;50.104;14.614;2023-06-22T00:15:26;98916.06;;;22.93;46.74
75945;BME280;64628;50.104;14.614;2023-06-22T00:17:51;98917.77;;;23.16;46.84
75945;BME280;64628;50.104;14.614;2023-06-22T00:20:16;98916.34;;;23.36;46.97
75945;BME280;64628;50.104;14.614;2023-06-22T00:22:41;98917.67;;;22.92;47.09
75945;BME280;64628;50.104;14.614;2023-06-22T00:25:07;98920.27;;;23.28;47.34
75945;BME280;64628;50.104;14.614;2023-06-22T00:27:32;98925.44;;;23.31;47.28
75945;BME280;64628;50.104;14.614;2023-06-22T00:29:57;98927.48;;;22.82;47.37
75945;BME280;64628;50.104;14.614;2023-06-22T00:32:23;98933.39;;;22.79;47.25
75945;BME280;64628;50.104;14.614;2023-06-22T00:34:48;98938.79;;;23.28;47.26
75945;BME280;64628;50.104;14.614;2023-06-22T00:37:14;98936.98;;;23.06;47.28
75945;BME280;64628;50.104;14.614;2023-06-22T00:39:39;98933.10;;;22.78;47.04
75945;BME280;64628;50.104;14.614;2023-06-22T00:42:05;98926.60;;;22.98;46.88
75945;BME280;64628;50.104;14.614;2023-06-22T00:44:29;98923.58;;;22.97;46.65
75945;BME280;64628;50.104;14.614;2023-06-22T00:46:54;98918.21;;;23.13;46.84
75945;BME280;64628;50.104;14.614;2023-06-22T00:49:21;98914.83;;;23.04;46.69
75945;BME280;64628;50.104;14.614;2023-06-22T00:51:46;98915.29;;;22.99;46.77
75945;BME280;64628;50.104;14.614;2023-06-22T00:54:11;98918.68;;;22.92;46.64
75945;BME280;64628;50.104;14.614;2023-06-22T00:56:37;98917.69;;;22.87;46.71
75945;BME280;64628;50.104;14.614;2023-06-22T00:59:01;98912.50;;;22.58;46.82
75945;BME280;64628;50.104;14.614;2023-06-22T01:01:26;98907.57;;;22.82;47.02
75945;BME280;64628;50.104;14.614;2023-06-22T01:03:52;98906.16;;;22.76;46.78
75945;BME280;64628;50.104;14.614;2023-06-22T01:06:22;98908.15;;;22.70;46.83
75945;BME280;64628;50.104;14.614;2023-06-22T01:08:48;98913.48;;;22.60;46.86
75945;BME280;64628;50.104;14.614;2023-06-22T01:11:10;98911.74;;;22.81;46.74
75945;BME280;64628;50.104;14.614;2023-06-22T01:13:37;98904.78;;;22.29;46.85
75945;BME280;64628;50.104;14.614;2023-06-22T01:16:01;98892.14;;;22.68;46.81
75945;BME280;64628;50.104;14.614;2023-06-22T01:18:23;98880.19;;;22.37;46.82
75945;BME280;64628;50.104;14.614;2023-06-22T01:20:48;98876.92;;;22.33;46.77
75945;BME280;64628;50.104;14.614;2023-06-22T01:23:20;98880.77;;;22.75;46.89
75945;BME280;64628;50.104;14.614;2023-06-22T01:25:46;98881.17;;;22.45;46.99
75945;BME280;64628;50.104;14.614;2023-06-22T01:28:13;98883.82;;;22.18;46.93
75945;BME280;64628;50.104;14.614;2023-06-22T01:30:30;98877.27;;;22.36;47.04
75945;BME280;64628;50.104;14.614;2023-06-22T01:32:58;98875.66;;;22.34;46.99
75945;BME280;64628;50.104;14.614;2023-06-22T01:35:20;98874.41;;;22.08;46.96
75945;BME280;64628;50.104;14.614;2023-06-22T01:37:46;98874.02;;;22.05;47.02
75945;BME280;64628;50.104;14.614;2023-06-22T01:40:11;98877.21;;;22.27;47.03
75945;BME280;64628;50.104;14.614;2023-06-22T01:42:36;98876.74;;;22.27;47.01
75945;BME280;64628;50.104;14.614;2023-06-22T01:45:02;98872.83;;;22.50;47.06
75945;BME280;64628;50.104;14.614;2023-06-22T01:47:27;98874.81;;;22.22;47.02
75945;BME280;64628;50.104;14.614;2023-06-22T01:49:52;98875.95;;;22.19;47.02
75945;BME280;64628;50.104;14.614;2023-06-22T01:52:17;98871.35;;;22.20;47.01
75945;BME280;64628;50.104;14.614;2023-06-22T01:54:42;98874.08;;;22.16;47.15
75945;BME280;64628;50.104;14.614;2023-06-22T01:57:07;98874.72;;;22.14;47.14
75945;BME280;64628;50.104;14.614;2023-06-22T01:59:39;98876.01;;;22.12;47.00
75945;BME280;64628;50.104;14.614;2023-06-22T02:02:04;98880.74;;;21.80;47.10
75945;BME280;64628;50.104;14.614;2023-06-22T02:04:27;98883.81;;;22.30;47.33
75945;BME280;64628;50.104;14.614;2023-06-22T02:06:53;98887.10;;;22.04;47.44
75945;BME280;64628;50.104;14.614;2023-06-22T02:09:16;98887.08;;;22.30;47.53
75945;BME280;64628;50.104;14.614;2023-06-22T02:11:41;98889.37;;;22.13;47.57
75945;BME280;64628;50.104;14.614;2023-06-22T02:14:05;98895.88;;;22.07;48.00
75945;BME280;64628;50.104;14.614;2023-06-22T02:16:31;98901.44;;;21.76;47.82
75945;BME280;64628;50.104;14.614;2023-06-22T02:18:56;98900.57;;;21.80;47.79
75945;BME280;64628;50.104;14.614;2023-06-22T02:21:21;98903.40;;;22.28;48.19
75945;BME280;64628;50.104;14.614;2023-06-22T02:23:47;98906.81;;;21.97;48.20
75945;BME280;64628;50.104;14.614;2023-06-22T02:26:12;98912.41;;;21.98;48.11
75945;BME280;64628;50.104;14.614;2023-06-22T02:28:37;98910.64;;;21.97;47.97
75945;BME280;64628;50.104;14.614;2023-06-22T02:31:02;98910.82;;;21.80;47.83
75945;BME280;64628;50.104;14.614;2023-06-22T02:33:28;98908.71;;;22.04;47.67
75945;BME280;64628;50.104;14.614;2023-06-22T02:35:54;98907.70;;;22.27;47.62
75945;BME280;64628;50.104;14.614;2023-06-22T02:38:19;98904.98;;;21.79;47.42
75945;BME280;64628;50.104;14.614;2023-06-22T02:40:44;98907.64;;;22.00;47.09
75945;BME280;64628;50.104;14.614;2023-06-22T02:43:10;98905.29;;;22.23;47.16
75945;BME280;64628;50.104;14.614;2023-06-22T02:45:35;98906.93;;;21.92;47.42
75945;BME280;64628;50.104;14.614;2023-06-22T02:48:00;98912.44;;;22.09;47.49
75945;BME280;64628;50.104;14.614;2023-06-22T02:50:26;98912.45;;;22.14;47.37
75945;BME280;64628;50.104;14.614;2023-06-22T02:52:51;98906.93;;;21.95;47.75
75945;BME280;64628;50.104;14.614;2023-06-22T02:55:16;98909.02;;;21.84;48.21
75945;BME280;64628;50.104;14.614;2023-06-22T02:57:42;98908.71;;;22.07;48.30
75945;BME280;64628;50.104;14.614;2023-06-22T03:00:09;98904.93;;;21.81;47.93
75945;BME280;64628;50.104;14.614;2023-06-22T03:02:33;98899.51;;;21.84;47.77
75945;BME280;64628;50.104;14.614;2023-06-22T03:04:58;98897.79;;;22.11;47.75
75945;BME280;64628;50.104;14.614;2023-06-22T03:07:23;98895.62;;;21.92;47.54
75945;BME280;64628;50.104;14.614;2023-06-22T03:09:49;98892.95;;;22.13;47.40
75945;BME280;64628;50.104;14.614;2023-06-22T03:12:14;98893.28;;;21.65;47.44
75945;BME280;64628;50.104;14.614;2023-06-22T03:14:40;98891.92;;;21.89;47.32
75945;BME280;64628;50.104;14.614;2023-06-22T03:17:05;98889.08;;;21.93;47.22
75945;BME280;64628;50.104;14.614;2023-06-22T03:19:30;98886.30;;;22.17;47.23
75945;BME280;64628;50.104;14.614;2023-06-22T03:21:55;98889.10;;;21.92;47.21
75945;BME280;64628;50.104;14.614;2023-06-22T03:24:21;98889.34;;;22.18;47.21
75945;BME280;64628;50.104;14.614;2023-06-22T03:26:47;98891.06;;;21.92;47.20
75945;BME280;64628;50.104;14.614;2023-06-22T03:29:12;98895.53;;;22.18;47.24
75945;BME280;64628;50.104;14.614;2023-06-22T03:31:37;98903.82;;;22.19;47.25
75945;BME280;64628;50.104;14.614;2023-06-22T03:34:03;98907.36;;;21.97;47.55
75945;BME280;64628;50.104;14.614;2023-06-22T03:36:28;98908.02;;;22.29;47.53
75945;BME280;64628;50.104;14.614;2023-06-22T03:38:53;98908.43;;;22.11;47.59
75945;BME280;64628;50.104;14.614;2023-06-22T03:41:18;98910.19;;;22.41;47.71
75945;BME280;64628;50.104;14.614;2023-06-22T03:43:44;98912.62;;;22.22;47.74
75945;BME280;64628;50.104;14.614;2023-06-22T03:46:09;98912.15;;;22.31;47.72
75945;BME280;64628;50.104;14.614;2023-06-22T03:48:34;98916.15;;;22.15;47.67
75945;BME280;64628;50.104;14.614;2023-06-22T03:50:59;98918.93;;;22.46;47.55
75945;BME280;64628;50.104;14.614;2023-06-22T03:53:24;98917.03;;;22.56;47.45
75945;BME280;64628;50.104;14.614;2023-06-22T03:55:50;98910.70;;;22.60;47.43
75945;BME280;64628;50.104;14.614;2023-06-22T03:58:14;98901.09;;;22.43;47.34
75945;BME280;64628;50.104;14.614;2023-06-22T04:00:39;98898.01;;;22.50;47.25
75945;BME280;64628;50.104;14.614;2023-06-22T04:03:05;98904.32;;;22.55;47.11
75945;BME280;64628;50.104;14.614;2023-06-22T04:05:30;98906.58;;;22.59;47.07
75945;BME280;64628;50.104;14.614;2023-06-22T04:07:55;98910.61;;;22.64;47.04
75945;BME280;64628;50.104;14.614;2023-06-22T04:10:21;98913.09;;;22.94;46.98
75945;BME280;64628;50.104;14.614;2023-06-22T04:12:47;98910.48;;;22.54;46.98
75945;BME280;64628;50.104;14.614;2023-06-22T04:15:12;98909.53;;;22.82;47.07
75945;BME280;64628;50.104;14.614;2023-06-22T04:17:37;98906.96;;;22.94;46.89
75945;BME280;64628;50.104;14.614;2023-06-22T04:20:02;98906.75;;;22.81;46.84
75945;BME280;64628;50.104;14.614;2023-06-22T04:22:28;98906.74;;;23.06;46.98
75945;BME280;64628;50.104;14.614;2023-06-22T04:24:54;98901.87;;;23.17;46.78
75945;BME280;64628;50.104;14.614;2023-06-22T04:27:19;98890.46;;;23.22;46.81
75945;BME280;64628;50.104;14.614;2023-06-22T04:29:45;98884.89;;;23.10;46.68
75945;BME280;64628;50.104;14.614;2023-06-22T04:32:10;98880.03;;;23.45;46.55
75945;BME280;64628;50.104;14.614;2023-06-22T04:34:35;98878.86;;;23.26;46.75
75945;BME280;64628;50.104;14.614;2023-06-22T04:37:00;98878.42;;;23.36;46.65
75945;BME280;64628;50.104;14.614;2023-06-22T04:39:25;98881.77;;;23.41;46.72
75945;BME280;64628;50.104;14.614;2023-06-22T04:41:51;98884.60;;;23.48;46.61
75945;BME280;64628;50.104;14.614;2023-06-22T04:44:18;98885.85;;;23.60;46.55
75945;BME280;64628;50.104;14.614;2023-06-22T04:46:42;98885.32;;;23.69;46.46
75945;BME280;64628;50.104;14.614;2023-06-22T04:49:07;98888.00;;;23.58;46.35
75945;BME280;64628;50.104;14.614;2023-06-22T04:51:33;98896.45;;;23.71;46.26
75945;BME280;64628;50.104;14.614;2023-06-22T04:53:58;98900.99;;;23.82;46.19
75945;BME280;64628;50.104;14.614;2023-06-22T04:56:24;98904.38;;;23.98;45.94
75945;BME280;64628;50.104;14.614;2023-06-22T04:58:49;98904.47;;;24.02;45.62
75945;BME280;64628;50.104;14.614;2023-06-22T05:01:15;98908.66;;;24.12;45.32
75945;BME280;64628;50.104;14.614;2023-06-22T05:03:40;98914.77;;;24.27;45.30
75945;BME280;64628;50.104;14.614;2023-06-22T05:06:06;98916.43;;;24.38;45.04
75945;BME280;64628;50.104;14.614;2023-06-22T05:08:31;98917.30;;;24.20;45.09
75945;BME280;64628;50.104;14.614;2023-06-22T05:10:57;98914.88;;;24.67;45.02
75945;BME280;64628;50.104;14.614;2023-06-22T05:13:23;98917.21;;;24.75;45.13
75945;BME280;64628;50.104;14.614;2023-06-22T05:15:48;98925.55;;;24.44;45.12
75945;BME280;64628;50.104;14.614;2023-06-22T05:18:13;98924.78;;;24.84;44.87
75945;BME280;64628;50.104;14.614;2023-06-22T05:20:39;98929.62;;;25.26;44.65
75945;BME280;64628;50.104;14.614;2023-06-22T05:23:04;98931.43;;;25.18;44.43
75945;BME280;64628;50.104;14.614;2023-06-22T05:25:29;98935.03;;;24.91;44.54
75945;BME280;64628;50.104;14.614;2023-06-22T05:27:56;98936.54;;;25.09;44.78
75945;BME280;64628;50.104;14.614;2023-06-22T05:30:21;98938.79;;;24.76;44.62
75945;BME280;64628;50.104;14.614;2023-06-22T05:32:46;98938.95;;;24.93;44.52
75945;BME280;64628;50.104;14.614;2023-06-22T05:35:12;98941.31;;;24.92;44.36
75945;BME280;64628;50.104;14.614;2023-06-22T05:37:37;98946.86;;;24.66;44.46
75945;BME280;64628;50.104;14.614;2023-06-22T05:40:03;98947.59;;;24.92;44.15
75945;BME280;64628;50.104;14.614;2023-06-22T05:42:28;98953.53;;;24.92;44.76
75945;BME280;64628;50.104;14.614;2023-06-22T05:44:54;98957.54;;;24.59;45.59
75945;BME280;64628;50.104;14.614;2023-06-22T05:47:19;98959.23;;;24.61;46.05
75945;BME280;64628;50.104;14.614;2023-06-22T05:49:44;98965.81;;;24.22;46.05
75945;BME280;64628;50.104;14.614;2023-06-22T05:52:10;98972.24;;;24.46;46.21
75945;BME280;64628;50.104;14.614;2023-06-22T05:54:35;98980.16;;;24.65;46.16
75945;BME280;64628;50.104;14.614;2023-06-22T05:57:01;98980.38;;;24.23;46.11
75945;BME280;64628;50.104;14.614;2023-06-22T05:59:26;98978.36;;;24.28;46.34
75945;BME280;64628;50.104;14.614;2023-06-22T06:01:52;98972.05;;;24.62;46.57
75945;BME280;64628;50.104;14.614;2023-06-22T06:04:17;98965.86;;;24.45;46.94
75945;BME280;64628;50.104;14.614;2023-06-22T06:06:43;98964.86;;;24.82;47.17
75945;BME280;64628;50.104;14.614;2023-06-22T06:09:09;98958.01;;;24.72;46.90
75945;BME280;64628;50.104;14.614;2023-06-22T06:11:34;98955.97;;;24.81;46.35
75945;BME280;64628;50.104;14.614;2023-06-22T06:14:00;98962.07;;;24.87;46.00
75945;BME280;64628;50.104;14.614;2023-06-22T06:16:25;98970.38;;;24.92;45.74
75945;BME280;64628;50.104;14.614;2023-06-22T06:18:50;98970.88;;;25.14;46.35
75945;BME280;64628;50.104;14.614;2023-06-22T06:21:15;98973.47;;;25.37;46.26
75945;BME280;64628;50.104;14.614;2023-06-22T06:23:41;98975.98;;;25.09;45.80
75945;BME280;64628;50.104;14.614;2023-06-22T06:26:06;98972.45;;;25.45;45.69
75945;BME280;64628;50.104;14.614;2023-06-22T06:28:32;98973.20;;;25.57;45.79
75945;BME280;64628;50.104;14.614;2023-06-22T06:30:58;98976.25;;;25.47;45.93
75945;BME280;64628;50.104;14.614;2023-06-22T06:33:23;98972.79;;;25.97;45.43
75945;BME280;64628;50.104;14.614;2023-06-22T06:35:49;98969.27;;;26.15;45.62
75945;BME280;64628;50.104;14.614;2023-06-22T06:38:14;98973.84;;;25.86;45.39
75945;BME280;64628;50.104;14.614;2023-06-22T06:40:40;98969.30;;;26.47;44.95
75945;BME280;64628;50.104;14.614;2023-06-22T06:43:06;98959.88;;;26.16;44.45
75945;BME280;64628;50.104;14.614;2023-06-22T06:45:32;98957.99;;;26.37;44.77
75945;BME280;64628;50.104;14.614;2023-06-22T06:47:57;98955.76;;;26.59;44.60
75945;BME280;64628;50.104;14.614;2023-06-22T06:50:23;98951.98;;;26.80;44.71
75945;BME280;64628;50.104;14.614;2023-06-22T06:52:48;98948.58;;;26.71;44.01
75945;BME280;64628;50.104;14.614;2023-06-22T06:55:14;98951.44;;;26.86;43.31
75945;BME280;64628;50.104;14.614;2023-06-22T06:57:41;98953.25;;;27.24;43.65
75945;BME280;64628;50.104;14.614;2023-06-22T07:00:07;98955.29;;;27.20;43.45
75945;BME280;64628;50.104;14.614;2023-06-22T07:02:30;98951.43;;;27.57;43.45
75945;BME280;64628;50.104;14.614;2023-06-22T07:04:56;98942.55;;;27.31;43.15
75945;BME280;64628;50.104;14.614;2023-06-22T07:07:22;98937.91;;;27.75;42.48
75945;BME280;64628;50.104;14.614;2023-06-22T07:09:47;98942.82;;;27.54;42.02
75945;BME280;64628;50.104;14.614;2023-06-22T07:12:13;98941.22;;;28.02;42.08
75945;BME280;64628;50.104;14.614;2023-06-22T07:14:38;98942.52;;;28.16;41.37
75945;BME280;64628;50.104;14.614;2023-06-22T07:17:04;98942.38;;;28.01;41.28
75945;BME280;64628;50.104;14.614;2023-06-22T07:19:29;98935.64;;;28.12;41.15
75945;BME280;64628;50.104;14.614;2023-06-22T07:21:55;98927.42;;;28.61;40.93
75945;BME280;64628;50.104;14.614;2023-06-22T07:24:21;98922.33;;;28.57;40.68
75945;BME280;64628;50.104;14.614;2023-06-22T07:26:45;98928.15;;;28.80;40.43
75945;BME280;64628;50.104;14.614;2023-06-22T07:29:11;98927.03;;;29.15;40.17
75945;BME280;64628;50.104;14.614;2023-06-22T07:31:36;98923.19;;;28.77;39.91
75945;BME280;64628;50.104;14.614;2023-06-22T07:34:02;98922.94;;;29.22;39.89
75945;BME280;64628;50.104;14.614;2023-06-22T07:36:27;98921.06;;;29.06;39.69
75945;BME280;64628;50.104;14.614;2023-06-22T07:38:52;98922.81;;;29.21;39.12
75945;BME280;64628;50.104;14.614;2023-06-22T07:41:18;98917.73;;;28.90;38.87
75945;BME280;64628;50.104;14.614;2023-06-22T07:43:44;98913.79;;;29.36;38.92
75945;BME280;64628;50.104;14.614;2023-06-22T07:46:09;98913.35;;;29.32;39.09
75945;BME280;64628;50.104;14.614;2023-06-22T07:48:37;98916.34;;;29.99;38.26
75945;BME280;64628;50.104;14.614;2023-06-22T07:51:00;98918.34;;;29.76;37.66
75945;BME280;64628;50.104;14.614;2023-06-22T07:53:24;98914.76;;;29.63;36.64
75945;BME280;64628;50.104;14.614;2023-06-22T07:55:50;98905.09;;;30.12;36.86
75945;BME280;64628;50.104;14.614;2023-06-22T07:58:16;98896.40;;;30.55;37.75
75945;BME280;64628;50.104;14.614;2023-06-22T08:00:41;98891.65;;;30.32;37.01
75945;BME280;64628;50.104;14.614;2023-06-22T08:03:07;98890.70;;;30.23;36.96
75945;BME280;64628;50.104;14.614;2023-06-22T08:05:33;98886.07;;;30.71;36.42
75945;BME280;64628;50.104;14.614;2023-06-22T08:07:58;98879.04;;;30.35;35.57
75945;BME280;64628;50.104;14.614;2023-06-22T08:10:23;98875.93;;;30.96;35.46
75945;BME280;64628;50.104;14.614;2023-06-22T08:12:48;98872.24;;;31.11;34.95
75945;BME280;64628;50.104;14.614;2023-06-22T08:15:13;98871.41;;;31.05;34.19
75945;BME280;64628;50.104;14.614;2023-06-22T08:17:39;98867.41;;;31.19;34.18
75945;BME280;64628;50.104;14.614;2023-06-22T08:20:05;98869.08;;;31.45;33.89
75945;BME280;64628;50.104;14.614;2023-06-22T08:22:29;98867.70;;;31.44;34.03
75945;BME280;64628;50.104;14.614;2023-06-22T08:24:55;98870.09;;;31.63;33.95
75945;BME280;64628;50.104;14.614;2023-06-22T08:27:21;98866.02;;;32.09;32.99
75945;BME280;64628;50.104;14.614;2023-06-22T08:29:46;98863.87;;;32.16;33.00
75945;BME280;64628;50.104;14.614;2023-06-22T08:32:12;98861.15;;;32.65;31.91
75945;BME280;64628;50.104;14.614;2023-06-22T08:34:37;98855.79;;;32.64;31.73
75945;BME280;64628;50.104;14.614;2023-06-22T08:37:02;98858.93;;;32.27;31.81
75945;BME280;64628;50.104;14.614;2023-06-22T08:39:28;98853.44;;;32.51;31.64
75945;BME280;64628;50.104;14.614;2023-06-22T08:41:54;98847.69;;;32.54;31.62
75945;BME280;64628;50.104;14.614;2023-06-22T08:44:20;98845.89;;;32.62;31.53
75945;BME280;64628;50.104;14.614;2023-06-22T08:46:44;98843.33;;;32.71;31.79
75945;BME280;64628;50.104;14.614;2023-06-22T08:49:10;98845.79;;;32.90;31.55
75945;BME280;64628;50.104;14.614;2023-06-22T08:51:35;98847.20;;;33.04;31.60
75945;BME280;64628;50.104;14.614;2023-06-22T08:54:01;98850.96;;;33.20;31.72
75945;BME280;64628;50.104;14.614;2023-06-22T08:56:27;98847.93;;;33.38;31.14
75945;BME280;64628;50.104;14.614;2023-06-22T08:58:52;98847.59;;;33.17;30.89
75945;BME280;64628;50.104;14.614;2023-06-22T09:01:18;98848.07;;;33.71;29.62
75945;BME280;64628;50.104;14.614;2023-06-22T09:03:44;98847.64;;;33.17;28.83
75945;BME280;64628;50.104;14.614;2023-06-22T09:06:09;98848.11;;;33.81;28.12
75945;BME280;64628;50.104;14.614;2023-06-22T09:08:35;98848.14;;;33.44;28.47
75945;BME280;64628;50.104;14.614;2023-06-22T09:11:06;98849.02;;;33.61;28.32
75945;BME280;64628;50.104;14.614;2023-06-22T09:13:27;98848.92;;;33.66;28.20
75945;BME280;64628;50.104;14.614;2023-06-22T09:15:52;98837.43;;;33.94;28.70
75945;BME280;64628;50.104;14.614;2023-06-22T09:18:17;98838.23;;;34.31;28.35
75945;BME280;64628;50.104;14.614;2023-06-22T09:20:42;98838.09;;;34.56;27.24
75945;BME280;64628;50.104;14.614;2023-06-22T09:23:08;98836.58;;;34.82;28.25
75945;BME280;64628;50.104;14.614;2023-06-22T09:25:33;98837.24;;;34.79;27.72
75945;BME280;64628;50.104;14.614;2023-06-22T09:27:59;98832.45;;;34.86;26.73
75945;BME280;64628;50.104;14.614;2023-06-22T09:30:24;98832.47;;;34.86;27.78
75945;BME280;64628;50.104;14.614;2023-06-22T09:32:50;98830.60;;;35.27;27.65
75945;BME280;64628;50.104;14.614;2023-06-22T09:35:15;98824.94;;;35.09;27.79
75945;BME280;64628;50.104;14.614;2023-06-22T09:37:41;98822.06;;;35.02;27.89
75945;BME280;64628;50.104;14.614;2023-06-22T09:40:07;98816.76;;;35.11;27.26
75945;BME280;64628;50.104;14.614;2023-06-22T09:42:33;98818.50;;;35.77;27.37
75945;BME280;64628;50.104;14.614;2023-06-22T09:44:58;98812.92;;;35.38;26.79
75945;BME280;64628;50.104;14.614;2023-06-22T09:47:23;98813.57;;;35.74;27.25
75945;BME280;64628;50.104;14.614;2023-06-22T09:49:49;98813.49;;;35.85;27.15
75945;BME280;64628;50.104;14.614;2023-06-22T09:52:14;98814.28;;;35.87;26.52
75945;BME280;64628;50.104;14.614;2023-06-22T09:54:40;98817.43;;;36.03;27.09
75945;BME280;64628;50.104;14.614;2023-06-22T09:57:05;98817.61;;;35.84;25.86
75945;BME280;64628;50.104;14.614;2023-06-22T09:59:31;98814.44;;;35.84;25.78
75945;BME280;64628;50.104;14.614;2023-06-22T10:01:56;98812.46;;;36.17;25.18
75945;BME280;64628;50.104;14.614;2023-06-22T10:04:21;98811.12;;;35.80;25.37
75945;BME280;64628;50.104;14.614;2023-06-22T10:06:47;98809.25;;;35.90;25.33
75945;BME280;64628;50.104;14.614;2023-06-22T10:09:13;98801.08;;;36.03;25.77
75945;BME280;64628;50.104;14.614;2023-06-22T10:11:39;98800.46;;;36.10;25.14
75945;BME280;64628;50.104;14.614;2023-06-22T10:14:04;98800.91;;;36.31;25.14
75945;BME280;64628;50.104;14.614;2023-06-22T10:16:31;98793.08;;;36.29;25.96
75945;BME280;64628;50.104;14.614;2023-06-22T10:18:56;98795.83;;;36.19;26.07
75945;BME280;64628;50.104;14.614;2023-06-22T10:21:21;98797.28;;;36.35;25.94
75945;BME280;64628;50.104;14.614;2023-06-22T10:23:46;98792.42;;;36.46;25.76
75945;BME280;64628;50.104;14.614;2023-06-22T10:26:11;98795.78;;;36.42;24.74
75945;BME280;64628;50.104;14.614;2023-06-22T10:28:37;98791.34;;;36.54;24.97
75945;BME280;64628;50.104;14.614;2023-06-22T10:31:03;98790.77;;;36.33;25.29
75945;BME280;64628;50.104;14.614;2023-06-22T10:33:28;98795.09;;;36.58;24.89
75945;BME280;64628;50.104;14.614;2023-06-22T10:35:53;98789.66;;;36.74;24.76
75945;BME280;64628;50.104;14.614;2023-06-22T10:38:18;98790.43;;;36.66;25.37
75945;BME280;64628;50.104;14.614;2023-06-22T10:40:44;98787.87;;;36.79;24.84
75945;BME280;64628;50.104;14.614;2023-06-22T10:43:09;98786.84;;;37.07;25.17
75945;BME280;64628;50.104;14.614;2023-06-22T10:45:34;98787.14;;;36.82;25.68
75945;BME280;64628;50.104;14.614;2023-06-22T10:48:00;98790.37;;;36.80;25.04
75945;BME280;64628;50.104;14.614;2023-06-22T10:50:26;98786.88;;;36.89;24.69
75945;BME280;64628;50.104;14.614;2023-06-22T10:52:51;98782.66;;;36.73;24.93
75945;BME280;64628;50.104;14.614;2023-06-22T10:55:16;98783.92;;;36.91;23.97
75945;BME280;64628;50.104;14.614;2023-06-22T10:57:42;98789.46;;;37.17;23.78
75945;BME280;64628;50.104;14.614;2023-06-22T11:00:08;98778.20;;;36.77;24.27
75945;BME280;64628;50.104;14.614;2023-06-22T11:02:33;98775.22;;;37.14;24.77
75945;BME280;64628;50.104;14.614;2023-06-22T11:04:59;98772.11;;;37.15;24.34
75945;BME280;64628;50.104;14.614;2023-06-22T11:07:25;98774.05;;;36.83;23.44
75945;BME280;64628;50.104;14.614;2023-06-22T11:09:50;98768.32;;;36.95;23.88
75945;BME280;64628;50.104;14.614;2023-06-22T11:12:15;98759.34;;;36.65;24.14
75945;BME280;64628;50.104;14.614;2023-06-22T11:14:41;98754.01;;;37.02;23.23
75945;BME280;64628;50.104;14.614;2023-06-22T11:17:07;98753.61;;;37.15;24.84
75945;BME280;64628;50.104;14.614;2023-06-22T11:19:32;98753.60;;;37.07;25.18
75945;BME280;64628;50.104;14.614;2023-06-22T11:21:57;98748.69;;;36.88;24.50
75945;BME280;64628;50.104;14.614;2023-06-22T11:24:23;98747.47;;;36.67;23.63
75945;BME280;64628;50.104;14.614;2023-06-22T11:26:48;98747.77;;;36.72;23.41
75945;BME280;64628;50.104;14.614;2023-06-22T11:29:13;98746.92;;;36.68;24.69
75945;BME280;64628;50.104;14.614;2023-06-22T11:31:39;98743.81;;;36.93;24.93
75945;BME280;64628;50.104;14.614;2023-06-22T11:34:04;98740.03;;;36.88;23.47
75945;BME280;64628;50.104;14.614;2023-06-22T11:36:30;98735.32;;;36.94;23.20
75945;BME280;64628;50.104;14.614;2023-06-22T11:38:56;98733.65;;;37.06;23.44
75945;BME280;64628;50.104;14.614;2023-06-22T11:41:21;98733.89;;;37.29;24.09
75945;BME280;64628;50.104;14.614;2023-06-22T11:43:46;98718.46;;;37.48;24.64
75945;BME280;64628;50.104;14.614;2023-06-22T11:46:12;98713.78;;;37.55;25.21
75945;BME280;64628;50.104;14.614;2023-06-22T11:48:37;98704.43;;;37.82;24.31
75945;BME280;64628;50.104;14.614;2023-06-22T11:51:03;98701.72;;;37.76;24.16
75945;BME280;64628;50.104;14.614;2023-06-22T11:53:29;98700.61;;;37.50;24.53
75945;BME280;64628;50.104;14.614;2023-06-22T11:55:54;98699.21;;;37.63;23.80
75945;BME280;64628;50.104;14.614;2023-06-22T11:58:19;98699.20;;;38.22;23.54
75945;BME280;64628;50.104;14.614;2023-06-22T12:00:44;98695.53;;;37.95;23.23
75945;BME280;64628;50.104;14.614;2023-06-22T12:03:10;98694.53;;;37.93;23.61
75945;BME280;64628;50.104;14.614;2023-06-22T12:05:35;98690.70;;;37.82;23.91
75945;BME280;64628;50.104;14.614;2023-06-22T12:08:01;98700.71;;;37.80;24.37
75945;BME280;64628;50.104;14.614;2023-06-22T12:10:26;98700.99;;;37.86;23.13
75945;BME280;64628;50.104;14.614;2023-06-22T12:12:52;98694.91;;;38.14;22.90
75945;BME280;64628;50.104;14.614;2023-06-22T12:15:17;98690.97;;;37.98;23.70
75945;BME280;64628;50.104;14.614;2023-06-22T12:17:43;98690.44;;;37.60;24.09
75945;BME280;64628;50.104;14.614;2023-06-22T12:20:09;98689.11;;;37.38;24.58
75945;BME280;64628;50.104;14.614;2023-06-22T12:22:34;98687.71;;;37.20;23.93
75945;BME280;64628;50.104;14.614;2023-06-22T12:25:00;98684.38;;;37.44;24.32
75945;BME280;64628;50.104;14.614;2023-06-22T12:27:25;98680.87;;;37.54;25.26
75945;BME280;64628;50.104;14.614;2023-06-22T12:29:51;98681.14;;;37.70;25.20
75945;BME280;64628;50.104;14.614;2023-06-22T12:32:16;98681.36;;;37.98;23.86
75945;BME280;64628;50.104;14.614;2023-06-22T12:34:42;98681.07;;;37.79;24.10
75945;BME280;64628;50.104;14.614;2023-06-22T12:37:07;98676.88;;;38.03;24.14
75945;BME280;64628;50.104;14.614;2023-06-22T12:39:33;98676.04;;;38.08;24.65